Time;durP1;ratioP1;P1;durP2;ratioP2;P2;SDS_P1;SDS_P2;PMS_P1;PMS_P2;Temp;Humidity;BMP_temperature;BMP_pressure;BME280_temperature;BME280_humidity;BME280_pressure;Samples;Min_cycle;Max_cycle;Signal;HPM_P1;HPM_P2
2023/09/18 00:03:57;;;;;;;8.13;5.30;;;26.40;71.70;;;;;;10419892;28;20139;-33
2023/09/18 00:08:59;;;;;;;5.78;4.75;;;26.40;71.80;;;;;;10408572;28;20050;-32
2023/09/18 00:14:03;;;;;;;6.20;4.53;;;26.40;71.70;;;;;;10405710;28;20175;-35
2023/09/18 00:19:07;;;;;;;5.40;4.22;;;26.40;71.70;;;;;;10410763;28;20391;-39
2023/09/18 00:24:09;;;;;;;7.05;4.72;;;26.40;71.90;;;;;;10421455;28;20045;-35
2023/09/18 00:29:12;;;;;;;6.97;4.07;;;26.40;72.00;;;;;;10418231;28;20060;-34
2023/09/18 00:34:14;;;;;;;6.65;3.97;;;26.40;72.10;;;;;;10410828;28;20502;-34
2023/09/18 00:39:16;;;;;;;4.72;3.97;;;26.40;72.10;;;;;;10411320;28;20069;-40
2023/09/18 00:44:19;;;;;;;6.10;3.63;;;26.30;72.10;;;;;;10402265;28;20053;-36
2023/09/18 00:49:23;;;;;;;5.45;4.50;;;26.40;72.20;;;;;;10420603;28;20049;-35
2023/09/18 00:54:24;;;;;;;6.53;4.15;;;26.30;72.30;;;;;;10425806;28;20128;-38
2023/09/18 00:59:28;;;;;;;6.10;3.90;;;26.30;72.30;;;;;;10409813;28;20085;-38
2023/09/18 01:04:32;;;;;;;5.78;3.80;;;26.30;72.40;;;;;;10414750;28;20049;-35
2023/09/18 01:09:35;;;;;;;5.85;3.38;;;26.30;72.50;;;;;;10407559;28;20124;-33
2023/09/18 01:14:43;;;;;;;4.20;3.42;;;26.30;72.60;;;;;;10400318;28;20054;-34
2023/09/18 01:19:46;;;;;;;4.60;3.45;;;26.30;72.60;;;;;;10417744;28;20096;-32
2023/09/18 01:24:50;;;;;;;4.22;3.53;;;26.30;72.70;;;;;;10418047;28;20140;-32
2023/09/18 01:29:53;;;;;;;3.60;3.30;;;26.30;72.90;;;;;;10417198;28;20540;-33
2023/09/18 01:34:57;;;;;;;6.38;3.65;;;26.30;72.90;;;;;;10392741;28;20042;-37
2023/09/18 01:40:01;;;;;;;4.07;2.90;;;26.30;73.00;;;;;;10410349;28;20085;-41
2023/09/18 01:45:04;;;;;;;4.90;3.50;;;26.30;73.20;;;;;;10407167;28;20053;-34
2023/09/18 01:50:07;;;;;;;4.88;3.42;;;26.30;73.40;;;;;;10400647;28;20052;-33
2023/09/18 01:55:11;;;;;;;4.90;3.53;;;26.30;73.30;;;;;;10410213;28;20077;-35
2023/09/18 02:00:14;;;;;;;3.42;3.00;;;26.30;73.30;;;;;;10414832;28;20132;-33
2023/09/18 02:05:16;;;;;;;3.60;3.17;;;26.20;73.50;;;;;;10400020;28;20568;-31
2023/09/18 02:10:20;;;;;;;4.65;3.47;;;26.20;73.50;;;;;;10415709;28;20037;-34
2023/09/18 02:15:21;;;;;;;4.95;2.75;;;26.20;73.70;;;;;;10408136;28;20058;-35
2023/09/18 02:20:23;;;;;;;4.07;3.40;;;26.20;73.70;;;;;;10399716;28;20077;-32
2023/09/18 02:25:27;;;;;;;4.07;2.85;;;26.20;73.90;;;;;;10411425;28;20450;-39
2023/09/18 02:30:29;;;;;;;4.25;3.55;;;26.20;73.80;;;;;;10421299;28;20045;-34
2023/09/18 02:35:31;;;;;;;3.55;2.70;;;26.20;74.00;;;;;;10413283;28;20037;-32
2023/09/18 02:40:34;;;;;;;3.13;2.83;;;26.20;74.10;;;;;;10421099;28;20061;-36
2023/09/18 02:45:36;;;;;;;2.85;2.65;;;26.20;74.30;;;;;;10407571;28;20045;-32
2023/09/18 02:50:38;;;;;;;4.75;2.60;;;26.20;74.10;;;;;;10406354;28;20133;-39
2023/09/18 02:55:41;;;;;;;5.22;2.90;;;26.20;74.30;;;;;;10407829;28;20452;-31
2023/09/18 03:15:29;;;;;;;5.30;2.80;;;26.10;75.20;;;;;;10483157;27;1983584;-32
2023/09/18 03:20:32;;;;;;;3.83;2.85;;;26.10;75.90;;;;;;10562184;28;20130;-32
2023/09/18 03:25:34;;;;;;;3.28;2.97;;;26.10;75.60;;;;;;10549897;28;20059;-32
2023/09/18 03:30:37;;;;;;;3.00;2.58;;;26.10;75.70;;;;;;10552112;28;20069;-41
2023/09/18 03:35:48;;;;;;;4.20;2.88;;;26.10;75.80;;;;;;10542607;28;20040;-32
2023/09/18 03:40:50;;;;;;;6.45;2.63;;;26.10;75.80;;;;;;10545775;28;20059;-36
2023/09/18 03:45:53;;;;;;;5.80;2.53;;;26.10;76.00;;;;;;10543214;28;20048;-34
2023/09/18 03:50:55;;;;;;;4.88;2.70;;;26.10;76.00;;;;;;10559104;28;20083;-35
2023/09/18 03:55:56;;;;;;;4.45;3.28;;;26.10;76.00;;;;;;10561044;28;20500;-33
2023/09/18 04:01:01;;;;;;;5.55;2.88;;;26.10;76.20;;;;;;10525246;28;20044;-40
2023/09/18 04:06:03;;;;;;;2.85;2.38;;;26.10;76.50;;;;;;10558556;28;20048;-34
2023/09/18 04:11:09;;;;;;;3.20;2.83;;;26.10;76.90;;;;;;10552892;28;20052;-34
2023/09/18 04:16:16;;;;;;;5.80;3.97;;;26.00;77.00;;;;;;10564801;28;20055;-34
2023/09/18 04:21:18;;;;;;;3.13;2.83;;;26.10;76.80;;;;;;10556941;28;20481;-32
2023/09/18 04:26:20;;;;;;;5.63;2.47;;;26.10;77.20;;;;;;10531969;28;20051;-34
2023/09/18 04:31:23;;;;;;;3.78;2.45;;;26.10;77.20;;;;;;10513323;28;20044;-35
2023/09/18 04:36:25;;;;;;;5.95;3.30;;;26.10;77.30;;;;;;10512317;28;20069;-34
2023/09/18 04:41:27;;;;;;;4.00;2.85;;;26.10;78.10;;;;;;10515931;28;20040;-32
2023/09/18 04:46:31;;;;;;;3.33;2.80;;;26.00;78.20;;;;;;10525803;28;20139;-32
2023/09/18 04:51:33;;;;;;;3.13;2.47;;;25.70;81.10;;;;;;10524708;28;20388;-37
2023/09/18 04:56:35;;;;;;;3.88;2.78;;;25.70;80.90;;;;;;10523180;28;20124;-39
2023/09/18 05:01:38;;;;;;;3.63;3.05;;;25.90;79.80;;;;;;10518089;28;20076;-35
2023/09/18 05:06:41;;;;;;;4.63;3.17;;;25.80;80.50;;;;;;10507343;28;20688;-33
2023/09/18 05:11:43;;;;;;;3.80;2.45;;;25.80;81.30;;;;;;10512440;28;20106;-34
2023/09/18 05:16:46;;;;;;;5.70;3.35;;;26.00;80.20;;;;;;10517387;28;20537;-34
2023/09/18 05:21:49;;;;;;;3.15;2.40;;;25.90;81.70;;;;;;10529113;28;20463;-34
2023/09/18 05:26:52;;;;;;;7.75;3.75;;;26.00;80.00;;;;;;10522057;28;20094;-38
2023/09/18 05:31:55;;;;;;;3.28;2.55;;;25.60;83.30;;;;;;10520692;28;20045;-32
2023/09/18 05:36:57;;;;;;;5.72;2.47;;;25.90;80.40;;;;;;10523175;28;20055;-41
2023/09/18 05:41:59;;;;;;;4.90;4.05;;;25.50;83.40;;;;;;10532544;28;20097;-35
2023/09/18 05:47:03;;;;;;;6.53;3.72;;;25.10;86.80;;;;;;10519118;28;20524;-33
2023/09/18 05:52:05;;;;;;;5.75;2.90;;;24.80;88.90;;;;;;10502633;28;20060;-32
2023/09/18 05:57:07;;;;;;;4.40;3.10;;;24.00;92.20;;;;;;10531551;28;20123;-37
2023/09/18 06:02:11;;;;;;;7.60;3.22;;;24.50;90.70;;;;;;10523731;28;21250;-33
2023/09/18 06:07:13;;;;;;;4.78;3.15;;;24.40;90.90;;;;;;10501717;28;20443;-32
2023/09/18 06:12:14;;;;;;;9.48;4.88;;;24.00;92.50;;;;;;10505144;28;20118;-37
2023/09/18 06:17:18;;;;;;;;;;;23.80;93.80;;;;;;10506923;28;20114;-30
2023/09/18 06:22:20;;;;;;;5.38;3.38;;;24.00;92.10;;;;;;10511077;28;20352;-40
2023/09/18 06:27:22;;;;;;;4.03;2.45;;;24.00;92.60;;;;;;10531350;28;20049;-34
2023/09/18 06:32:25;;;;;;;;;;;25.10;88.80;;;;;;10509759;28;20117;-32
2023/09/18 06:37:27;;;;;;;4.28;2.40;;;24.70;91.70;;;;;;10511782;28;20376;-35
2023/09/18 06:42:29;;;;;;;;;;;25.30;86.80;;;;;;10516954;28;20565;-32
2023/09/18 06:47:32;;;;;;;;;;;25.50;84.80;;;;;;10517226;28;20216;-36
2023/09/18 06:52:34;;;;;;;3.00;1.80;;;25.20;87.10;;;;;;10509211;28;20390;-33
2023/09/18 06:57:36;;;;;;;4.93;2.20;;;24.80;88.90;;;;;;10495572;28;20171;-42
2023/09/18 07:02:39;;;;;;;2.30;2.10;;;24.60;90.60;;;;;;10526445;28;20143;-37
2023/09/18 07:07:41;;;;;;;1.85;1.50;;;25.10;87.00;;;;;;10507033;28;20119;-32
2023/09/18 07:12:42;;;;;;;3.22;1.70;;;24.80;90.10;;;;;;10520582;28;20056;-32
2023/09/18 07:17:45;;;;;;;;;;;23.80;92.90;;;;;;10523651;28;20497;-32
2023/09/18 07:22:48;;;;;;;2.97;1.85;;;22.50;96.00;;;;;;10508719;28;19925;-37
2023/09/18 07:27:50;;;;;;;5.30;2.05;;;23.80;92.80;;;;;;10515981;28;20067;-35
2023/09/18 07:32:56;;;;;;;2.42;1.63;;;23.10;94.50;;;;;;10515432;28;20094;-38
2023/09/18 07:37:58;;;;;;;4.00;2.08;;;23.40;93.90;;;;;;10517873;28;20131;-34
2023/09/18 07:43:00;;;;;;;;;;;22.50;96.60;;;;;;10527530;28;20917;-40
2023/09/18 07:48:04;;;;;;;;;;;22.90;95.10;;;;;;10506008;28;19952;-35
2023/09/18 07:53:06;;;;;;;2.67;1.52;;;22.70;96.40;;;;;;10524389;28;19955;-31
2023/09/18 07:58:08;;;;;;;;;;;22.60;97.20;;;;;;10520845;28;20079;-32
2023/09/18 08:03:11;;;;;;;;;;;22.50;96.70;;;;;;10519982;28;19924;-33
2023/09/18 08:08:13;;;;;;;4.35;1.60;;;22.60;96.20;;;;;;10528172;28;20007;-32
2023/09/18 08:13:15;;;;;;;3.40;1.48;;;22.30;97.30;;;;;;10525231;28;20135;-36
2023/09/18 08:18:18;;;;;;;6.45;2.13;;;23.00;95.40;;;;;;10516390;28;20055;-35
2023/09/18 08:23:20;;;;;;;7.57;2.08;;;21.70;99.90;;;;;;10532828;28;21319;-34
2023/09/18 08:28:22;;;;;;;5.50;1.70;;;21.80;99.90;;;;;;10527357;28;20075;-36
2023/09/18 08:33:25;;;;;;;;;;;21.90;99.10;;;;;;10529316;28;20102;-29
2023/09/18 08:38:27;;;;;;;5.63;2.00;;;22.50;98.60;;;;;;10511981;28;19926;-31
2023/09/18 08:43:32;;;;;;;3.03;1.80;;;22.20;98.80;;;;;;10522312;28;20549;-32
2023/09/18 08:48:36;;;;;;;5.07;2.47;;;22.00;99.20;;;;;;10532367;28;20169;-41
2023/09/18 08:53:38;;;;;;;3.15;1.95;;;22.10;99.10;;;;;;10512099;28;20139;-43
2023/09/18 08:58:42;;;;;;;2.70;1.80;;;21.70;99.90;;;;;;10522830;28;20044;-38
2023/09/18 09:03:45;;;;;;;4.45;2.47;;;22.00;98.90;;;;;;10527518;28;20462;-31
2023/09/18 09:08:47;;;;;;;5.00;1.90;;;22.00;99.10;;;;;;10530739;28;20052;-32
2023/09/18 09:14:09;;;;;;;;;;;22.40;97.00;;;;;;10525774;28;20072;-36
2023/09/18 09:19:12;;;;;;;9.80;2.42;;;22.20;98.10;;;;;;10519178;28;19924;-33
2023/09/18 09:24:14;;;;;;;4.75;2.55;;;22.30;97.30;;;;;;10514536;28;20079;-32
2023/09/18 09:29:18;;;;;;;3.35;1.90;;;22.40;96.80;;;;;;10523567;28;20050;-29
2023/09/18 09:34:30;;;;;;;5.63;2.50;;;22.40;97.00;;;;;;10531998;28;20067;-36
2023/09/18 09:39:32;;;;;;;4.45;1.90;;;22.80;96.10;;;;;;10527253;28;20051;-32
2023/09/18 09:44:34;;;;;;;2.50;1.35;;;22.80;95.90;;;;;;10519075;28;20135;-33
2023/09/18 09:49:46;;;;;;;7.05;2.20;;;23.80;93.60;;;;;;10524346;28;20481;-41
2023/09/18 09:54:48;;;;;;;3.95;2.58;;;23.80;92.40;;;;;;10522337;28;20048;-34
2023/09/18 09:59:50;;;;;;;3.25;2.33;;;22.80;95.70;;;;;;10518672;28;20445;-40
2023/09/18 10:04:53;;;;;;;;;;;22.80;95.90;;;;;;10508408;28;20056;-32
2023/09/18 10:09:55;;;;;;;7.25;3.58;;;23.00;95.50;;;;;;10520150;28;20018;-34
2023/09/18 10:14:58;;;;;;;11.20;3.08;;;22.90;94.80;;;;;;10516800;28;20094;-34
2023/09/18 10:20:10;;;;;;;3.95;1.77;;;22.70;95.50;;;;;;10516424;28;20048;-37
2023/09/18 10:25:17;;;;;;;5.15;2.65;;;22.60;95.50;;;;;;10523399;28;20054;-36
2023/09/18 10:30:20;;;;;;;2.83;1.90;;;23.50;93.00;;;;;;10515541;28;20879;-37
2023/09/18 10:35:24;;;;;;;6.50;2.80;;;23.30;92.90;;;;;;10527175;28;20572;-38
2023/09/18 10:40:27;;;;;;;4.13;2.35;;;23.40;92.80;;;;;;10511739;28;20129;-40
2023/09/18 10:45:29;;;;;;;7.82;2.67;;;23.60;92.10;;;;;;10528775;28;20558;-40
2023/09/18 10:50:33;;;;;;;4.30;1.92;;;23.40;92.20;;;;;;10517200;28;20124;-35
2023/09/18 10:55:36;;;;;;;5.75;2.38;;;24.00;90.40;;;;;;10525234;28;20044;-36
2023/09/18 11:00:38;;;;;;;1.88;1.55;;;23.20;92.60;;;;;;10530125;28;20044;-33
2023/09/18 11:05:41;;;;;;;;;;;23.80;91.50;;;;;;10520012;28;20219;-36
2023/09/18 11:10:56;;;;;;;2.90;1.38;;;24.00;91.30;;;;;;10512023;28;20325;-37
2023/09/18 11:16:03;;;;;;;2.08;1.40;;;24.30;87.50;;;;;;10514596;28;20060;-33
2023/09/18 11:21:10;;;;;;;3.70;1.63;;;25.00;83.50;;;;;;10509155;28;20070;-37
2023/09/18 11:26:12;;;;;;;4.80;1.52;;;24.80;82.40;;;;;;10517622;28;20164;-33
2023/09/18 11:31:14;;;;;;;3.65;1.80;;;24.80;84.10;;;;;;10508704;28;20052;-34
2023/09/18 11:36:30;;;;;;;2.72;1.30;;;25.00;83.10;;;;;;10517020;28;20052;-32
2023/09/18 11:41:36;;;;;;;7.78;2.08;;;25.10;82.90;;;;;;10521828;28;20045;-35
2023/09/18 11:46:40;;;;;;;3.90;1.60;;;25.30;80.80;;;;;;10526034;28;20044;-31
2023/09/18 11:51:43;;;;;;;1.85;1.23;;;25.30;82.50;;;;;;10525975;28;20037;-35
2023/09/18 11:56:46;;;;;;;4.00;1.20;;;25.80;79.80;;;;;;10514850;28;20635;-38
2023/09/18 12:01:54;;;;;;;8.85;1.50;;;25.70;79.10;;;;;;10514287;28;20080;-32
2023/09/18 12:06:59;;;;;;;3.47;1.15;;;25.30;79.60;;;;;;10532297;28;20052;-37
2023/09/18 12:12:04;;;;;;;6.28;1.90;;;25.90;76.80;;;;;;10520321;28;20056;-35
2023/09/18 12:17:07;;;;;;;1.95;1.55;;;25.10;79.90;;;;;;10519307;28;20144;-33
2023/09/18 12:22:12;;;;;;;3.53;1.83;;;25.40;81.70;;;;;;10523445;28;20048;-32
2023/09/18 12:27:14;;;;;;;3.72;1.60;;;25.30;80.00;;;;;;10523311;28;20079;-34
2023/09/18 12:32:16;;;;;;;1.98;1.20;;;25.90;79.00;;;;;;10515381;28;20036;-31
2023/09/18 12:37:19;;;;;;;3.20;1.20;;;26.40;75.80;;;;;;10514052;28;20646;-35
2023/09/18 12:42:21;;;;;;;3.63;1.25;;;26.50;74.90;;;;;;10524718;28;20064;-36
2023/09/18 12:47:25;;;;;;;5.15;2.08;;;26.90;73.10;;;;;;10513871;28;20405;-33
2023/09/18 12:52:28;;;;;;;2.28;1.13;;;26.40;75.30;;;;;;10508299;28;20064;-37
2023/09/18 12:57:32;;;;;;;1.60;1.10;;;27.00;71.20;;;;;;10526051;28;20043;-37
2023/09/18 13:02:34;;;;;;;4.13;1.52;;;26.90;72.00;;;;;;10537841;28;20398;-36
2023/09/18 13:07:47;;;;;;;2.40;1.48;;;27.00;72.40;;;;;;10532392;28;20102;-35
2023/09/18 13:12:52;;;;;;;2.08;0.93;;;27.10;71.30;;;;;;10511727;28;20516;-33
2023/09/18 13:17:54;;;;;;;2.30;1.15;;;27.60;69.40;;;;;;10515516;28;20151;-31
2023/09/18 13:23:00;;;;;;;3.42;1.55;;;27.20;70.80;;;;;;10514443;28;20090;-31
2023/09/18 13:28:04;;;;;;;2.40;1.20;;;27.00;70.40;;;;;;10514556;28;20044;-34
2023/09/18 13:33:07;;;;;;;1.98;1.05;;;26.80;71.60;;;;;;10521484;28;20056;-36
2023/09/18 13:38:12;;;;;;;2.70;1.42;;;26.90;72.00;;;;;;10528390;28;20044;-39
2023/09/18 13:43:15;;;;;;;2.15;1.10;;;26.80;72.10;;;;;;10529103;28;20093;-34
2023/09/18 13:48:17;;;;;;;1.77;1.20;;;26.90;72.00;;;;;;10516620;28;20066;-38
2023/09/18 13:53:21;;;;;;;2.58;1.15;;;26.80;72.70;;;;;;10511826;28;20139;-34
2023/09/18 13:58:23;;;;;;;4.70;2.00;;;26.80;73.10;;;;;;10529027;28;20044;-35
2023/09/18 14:03:26;;;;;;;13.57;2.05;;;25.20;82.50;;;;;;10518743;28;20131;-37
2023/09/18 14:08:29;;;;;;;9.05;1.58;;;25.10;85.60;;;;;;10516632;28;20040;-31
2023/09/18 14:13:32;;;;;;;4.45;1.25;;;24.70;90.00;;;;;;10516070;28;20147;-32
2023/09/18 14:18:33;;;;;;;3.13;1.45;;;25.10;86.10;;;;;;10515714;28;20823;-35
2023/09/18 14:23:37;;;;;;;;;;;25.40;84.60;;;;;;10509195;28;20036;-36
2023/09/18 14:28:38;;;;;;;4.35;1.20;;;25.50;84.30;;;;;;10525304;28;19927;-39
2023/09/18 14:33:40;;;;;;;1.90;0.80;;;25.90;81.20;;;;;;10508299;28;20131;-37
2023/09/18 14:38:43;;;;;;;5.72;1.17;;;24.70;89.40;;;;;;10527958;28;20509;-31
2023/09/18 14:43:46;;;;;;;2.53;0.70;;;25.00;89.30;;;;;;10504538;28;20044;-37
2023/09/18 14:48:48;;;;;;;6.53;1.00;;;25.50;86.60;;;;;;10514226;28;20052;-36
2023/09/18 14:53:51;;;;;;;4.63;1.15;;;25.90;81.90;;;;;;10521539;28;20059;-33
2023/09/18 14:58:54;;;;;;;3.47;1.02;;;25.20;87.60;;;;;;10524238;28;20074;-33
2023/09/18 15:03:57;;;;;;;2.92;1.25;;;26.20;80.80;;;;;;10516811;28;20107;-39
2023/09/18 15:09:02;;;;;;;2.22;0.80;;;26.60;78.90;;;;;;10505490;28;20144;-38
2023/09/18 15:14:05;;;;;;;3.92;0.93;;;26.80;76.90;;;;;;10512950;28;20056;-37
2023/09/18 15:19:08;;;;;;;5.00;1.52;;;26.80;76.10;;;;;;10526614;28;20056;-31
2023/09/18 15:24:11;;;;;;;4.95;0.90;;;27.00;75.80;;;;;;10511660;28;20048;-36
2023/09/18 15:29:13;;;;;;;3.65;0.70;;;26.90;75.60;;;;;;10516656;28;20126;-36
2023/09/18 15:34:16;;;;;;;5.72;1.40;;;26.80;75.70;;;;;;10513856;28;20143;-33
2023/09/18 15:39:20;;;;;;;3.17;1.30;;;25.90;79.80;;;;;;10510823;28;21384;-32
2023/09/18 15:44:21;;;;;;;3.70;1.40;;;25.30;85.40;;;;;;10514786;28;20067;-32
2023/09/18 15:49:25;;;;;;;4.43;1.58;;;24.00;92.40;;;;;;10518003;28;20127;-33
2023/09/18 15:54:28;;;;;;;6.28;1.45;;;24.30;92.60;;;;;;10506372;28;20160;-34
2023/09/18 15:59:30;;;;;;;9.98;2.42;;;23.80;92.80;;;;;;10512099;28;20047;-37
2023/09/18 16:04:32;;;;;;;6.55;1.40;;;23.70;93.70;;;;;;10512683;28;20098;-36
2023/09/18 16:09:36;;;;;;;8.88;1.58;;;25.40;84.70;;;;;;10515009;28;20047;-42
2023/09/18 16:14:37;;;;;;;8.65;1.88;;;25.40;84.30;;;;;;10516911;28;20173;-40
2023/09/18 16:19:40;;;;;;;13.05;2.88;;;25.20;86.60;;;;;;10516747;28;20128;-35
2023/09/18 16:24:44;;;;;;;10.45;1.83;;;25.30;85.80;;;;;;10524165;28;20082;-35
2023/09/18 16:29:46;;;;;;;12.27;2.05;;;25.00;87.90;;;;;;10511411;28;20051;-29
2023/09/18 16:34:48;;;;;;;14.60;3.05;;;24.80;88.00;;;;;;10517989;28;20097;-35
2023/09/18 16:39:52;;;;;;;9.05;1.73;;;24.80;89.00;;;;;;10513113;28;20105;-35
2023/09/18 16:44:54;;;;;;;15.88;3.25;;;24.80;89.50;;;;;;10523878;28;20094;-35
2023/09/18 16:49:56;;;;;;;19.25;3.22;;;24.50;89.70;;;;;;10518593;28;20400;-32
2023/09/18 16:55:04;;;;;;;19.58;3.80;;;24.70;88.90;;;;;;10517737;28;20091;-36
2023/09/18 17:00:08;;;;;;;22.23;3.50;;;23.20;93.20;;;;;;10525958;28;20046;-32
2023/09/18 17:05:10;;;;;;;9.32;3.20;;;23.30;92.60;;;;;;10509485;28;20075;-34
2023/09/18 17:10:12;;;;;;;;;;;23.40;93.20;;;;;;10510516;28;20330;-39
2023/09/18 17:15:15;;;;;;;11.60;2.53;;;24.50;90.30;;;;;;10497990;28;20011;-40
2023/09/18 17:20:17;;;;;;;16.48;2.58;;;24.70;85.20;;;;;;10514805;28;20044;-34
2023/09/18 17:25:21;;;;;;;19.45;2.58;;;23.90;92.70;;;;;;10511501;28;20040;-33
2023/09/18 17:30:24;;;;;;;14.65;2.20;;;24.60;88.30;;;;;;10506024;28;20408;-33
2023/09/18 17:35:26;;;;;;;9.30;2.60;;;24.40;90.10;;;;;;10520947;28;20055;-40
2023/09/18 17:40:29;;;;;;;14.43;2.88;;;24.70;88.20;;;;;;10511197;28;20117;-39
2023/09/18 17:45:31;;;;;;;15.68;2.20;;;24.90;84.80;;;;;;10511398;28;20594;-32
2023/09/18 17:50:33;;;;;;;16.13;2.38;;;24.80;86.20;;;;;;10500348;28;20055;-36
2023/09/18 17:55:36;;;;;;;;;;;24.50;88.30;;;;;;10513900;28;20059;-32
2023/09/18 18:00:39;;;;;;;15.07;2.58;;;24.50;87.10;;;;;;10522141;28;20673;-34
2023/09/18 18:05:43;;;;;;;17.85;2.42;;;24.30;89.70;;;;;;10512877;28;20040;-34
2023/09/18 18:10:47;;;;;;;16.45;3.20;;;24.70;85.10;;;;;;10508642;28;20055;-33
2023/09/18 18:15:50;;;;;;;11.55;2.25;;;25.10;82.30;;;;;;10507649;28;20052;-40
2023/09/18 18:20:52;;;;;;;16.05;2.38;;;25.00;84.30;;;;;;10508972;28;20128;-31
2023/09/18 18:25:56;;;;;;;8.90;1.92;;;25.30;81.40;;;;;;10519185;28;20131;-38
2023/09/18 18:30:58;;;;;;;23.52;3.50;;;25.00;84.00;;;;;;10510116;28;20135;-31
2023/09/18 18:36:00;;;;;;;;;;;22.60;92.90;;;;;;10504250;28;20134;-34
2023/09/18 18:41:03;;;;;;;23.85;4.38;;;20.50;99.90;;;;;;10512831;28;19924;-36
2023/09/18 18:46:09;;;;;;;17.75;3.42;;;20.20;99.90;;;;;;10505233;28;20092;-35
2023/09/18 18:51:12;;;;;;;29.55;3.70;;;20.10;99.90;;;;;;10512790;28;20135;-34
2023/09/18 18:56:16;;;;;;;19.23;4.53;;;19.80;99.90;;;;;;10512866;28;20424;-37
2023/09/18 19:01:20;;;;;;;17.85;4.18;;;18.90;99.90;;;;;;10532011;28;20128;-34
2023/09/18 19:06:22;;;;;;;16.92;2.40;;;19.60;99.90;;;;;;10514388;28;20125;-37
2023/09/18 19:11:26;;;;;;;9.05;2.17;;;19.50;99.90;;;;;;10508464;28;20087;-30
2023/09/18 19:16:28;;;;;;;10.07;1.65;;;19.50;99.90;;;;;;10517398;28;20082;-37
2023/09/18 19:21:30;;;;;;;9.20;2.08;;;20.40;99.90;;;;;;10510309;28;20139;-32
2023/09/18 19:26:33;;;;;;;;;;;20.60;97.80;;;;;;10520832;28;20075;-36
2023/09/18 19:31:35;;;;;;;5.38;1.55;;;19.80;99.90;;;;;;10504554;28;20070;-35
2023/09/18 19:36:36;;;;;;;6.22;1.20;;;20.70;99.60;;;;;;10509347;28;20495;-33
2023/09/18 19:41:40;;;;;;;7.07;1.25;;;20.50;98.40;;;;;;10501611;28;20111;-32
2023/09/18 19:46:42;;;;;;;7.35;1.58;;;20.40;99.90;;;;;;10513643;28;20040;-37
2023/09/18 19:51:44;;;;;;;5.93;1.55;;;19.60;99.10;;;;;;10510853;28;20767;-34
2023/09/18 19:56:47;;;;;;;6.05;1.55;;;20.00;99.50;;;;;;10511555;28;20079;-33
2023/09/18 20:01:49;;;;;;;4.57;1.50;;;21.10;97.60;;;;;;10517601;28;20040;-37
2023/09/18 20:06:53;;;;;;;8.00;1.13;;;21.20;97.20;;;;;;10515825;28;20058;-30
2023/09/18 20:11:57;;;;;;;7.18;1.10;;;21.10;97.70;;;;;;10529499;28;20147;-38
2023/09/18 20:17:00;;;;;;;6.25;0.90;;;20.40;97.80;;;;;;10509014;28;20051;-33
2023/09/18 20:22:02;;;;;;;6.30;1.45;;;20.20;97.80;;;;;;10516215;28;20112;-37
2023/09/18 20:27:07;;;;;;;7.95;0.95;;;19.80;98.70;;;;;;10514061;28;20125;-34
2023/09/18 20:32:09;;;;;;;12.80;2.10;;;20.20;96.10;;;;;;10508738;28;20427;-33
2023/09/18 20:37:10;;;;;;;16.60;1.95;;;20.30;97.30;;;;;;10516922;28;20036;-31
2023/09/18 20:42:14;;;;;;;7.22;1.73;;;20.00;95.80;;;;;;10504217;28;20539;-36
2023/09/18 20:47:17;;;;;;;9.43;1.45;;;20.10;95.50;;;;;;10521040;28;20095;-31
2023/09/18 20:52:19;;;;;;;9.27;1.40;;;20.30;91.60;;;;;;10498611;28;20032;-42
2023/09/18 20:57:22;;;;;;;12.88;1.75;;;21.40;90.70;;;;;;10512389;28;20469;-30
2023/09/18 21:02:24;;;;;;;11.88;1.73;;;19.70;96.60;;;;;;10526164;28;20086;-38
2023/09/18 21:07:27;;;;;;;6.40;1.05;;;19.50;98.20;;;;;;10512045;28;20048;-34
2023/09/18 21:12:31;;;;;;;6.55;1.35;;;20.90;95.60;;;;;;10527223;28;20097;-33
2023/09/18 21:17:33;;;;;;;3.92;1.50;;;20.20;92.60;;;;;;10528994;28;20089;-32
2023/09/18 21:22:38;;;;;;;8.55;1.10;;;21.10;95.20;;;;;;10510620;28;20075;-38
2023/09/18 21:27:41;;;;;;;10.10;1.50;;;20.80;94.80;;;;;;10529688;28;20130;-36
2023/09/18 21:32:45;;;;;;;11.02;1.38;;;21.50;81.20;;;;;;10519008;28;20153;-31
2023/09/18 21:37:48;;;;;;;7.38;1.35;;;19.70;95.10;;;;;;10522857;28;20087;-37
2023/09/18 21:42:52;;;;;;;4.93;1.13;;;20.10;89.80;;;;;;10519404;28;20048;-35
2023/09/18 21:47:54;;;;;;;4.80;0.82;;;18.80;97.50;;;;;;10505821;28;20048;-32
2023/09/18 21:52:56;;;;;;;;;;;20.00;83.70;;;;;;10524177;28;20040;-33
2023/09/18 21:57:59;;;;;;;8.47;1.00;;;20.00;92.90;;;;;;10528869;28;20003;-34
2023/09/18 22:03:02;;;;;;;5.00;1.08;;;19.50;86.30;;;;;;10525368;28;20044;-31
2023/09/18 22:08:04;;;;;;;4.97;1.58;;;20.00;88.90;;;;;;10511816;28;20050;-42
2023/09/18 22:13:08;;;;;;;5.57;1.10;;;21.00;76.80;;;;;;10519981;28;20135;-31
2023/09/18 22:18:11;;;;;;;2.42;1.13;;;20.40;81.70;;;;;;10513560;28;20497;-33
2023/09/18 22:23:13;;;;;;;1.50;0.60;;;21.20;83.30;;;;;;10529953;28;20058;-31
2023/09/18 22:28:17;;;;;;;4.25;1.52;;;20.60;78.50;;;;;;10535055;28;20334;-37
2023/09/18 22:33:19;;;;;;;6.25;1.52;;;20.10;88.40;;;;;;10521245;28;20047;-35
2023/09/18 22:38:30;;;;;;;3.85;1.52;;;19.90;79.10;;;;;;10529591;28;20056;-37
2023/09/18 22:44:11;;;;;;;4.43;1.65;;;20.00;91.30;;;;;;10527316;28;20043;-36
2023/09/18 22:49:50;;;;;;;9.70;1.13;;;19.60;81.20;;;;;;10505040;28;20049;-32
2023/09/18 22:54:54;;;;;;;7.60;1.30;;;19.50;90.80;;;;;;10528223;28;20504;-38
2023/09/18 22:59:57;;;;;;;4.38;1.05;;;20.40;88.40;;;;;;10514269;28;20134;-40
2023/09/18 23:05:01;;;;;;;7.70;1.20;;;19.40;90.00;;;;;;10527356;28;20082;-35
2023/09/18 23:10:07;;;;;;;5.22;1.40;;;20.10;83.20;;;;;;10521632;28;20052;-40
2023/09/18 23:15:11;;;;;;;6.22;1.42;;;20.60;88.30;;;;;;10515281;28;20052;-33
2023/09/18 23:20:15;;;;;;;4.28;1.13;;;19.80;83.10;;;;;;10538748;28;20093;-34
2023/09/18 23:25:19;;;;;;;7.97;1.52;;;20.40;81.20;;;;;;10524613;28;20047;-35
2023/09/18 23:30:23;;;;;;;14.48;1.95;;;19.70;73.70;;;;;;10516245;28;20051;-37
2023/09/18 23:35:27;;;;;;;7.05;1.38;;;19.40;88.60;;;;;;10524909;28;20049;-34
2023/09/18 23:40:32;;;;;;;10.40;1.85;;;20.00;71.00;;;;;;10528207;28;20086;-37
2023/09/18 23:45:37;;;;;;;7.60;1.63;;;19.40;87.80;;;;;;10532306;28;20078;-32
2023/09/18 23:50:41;;;;;;;6.47;1.30;;;19.40;71.60;;;;;;10521974;28;20131;-35
2023/09/18 23:55:45;;;;;;;6.07;1.35;;;20.00;80.30;;;;;;10515568;28;20135;-33
